sensor_id;sensor_type;location;lat;lon;timestamp;temperature;humidity
19813;DHT22;10066;48.108;11.448;2023-03-23T00:02:14;8.70;96.60
19813;DHT22;10066;48.108;11.448;2023-03-23T00:04:42;8.70;96.70
19813;DHT22;10066;48.108;11.448;2023-03-23T00:07:09;8.70;96.80
19813;DHT22;10066;48.108;11.448;2023-03-23T00:09:38;8.70;96.90
19813;DHT22;10066;48.108;11.448;2023-03-23T00:12:07;8.60;96.90
19813;DHT22;10066;48.108;11.448;2023-03-23T00:14:34;8.60;97.10
19813;DHT22;10066;48.108;11.448;2023-03-23T00:17:09;8.60;97.20
19813;DHT22;10066;48.108;11.448;2023-03-23T00:19:37;8.60;97.50
19813;DHT22;10066;48.108;11.448;2023-03-23T00:22:18;8.60;97.60
19813;DHT22;10066;48.108;11.448;2023-03-23T00:24:47;8.60;97.70
19813;DHT22;10066;48.108;11.448;2023-03-23T00:27:16;8.60;97.80
19813;DHT22;10066;48.108;11.448;2023-03-23T00:29:43;8.60;98.00
19813;DHT22;10066;48.108;11.448;2023-03-23T00:32:12;8.60;98.20
19813;DHT22;10066;48.108;11.448;2023-03-23T00:34:40;8.60;98.20
19813;DHT22;10066;48.108;11.448;2023-03-23T00:37:08;8.60;98.40
19813;DHT22;10066;48.108;11.448;2023-03-23T00:39:38;8.60;98.40
19813;DHT22;10066;48.108;11.448;2023-03-23T00:42:12;8.70;98.60
19813;DHT22;10066;48.108;11.448;2023-03-23T00:44:40;8.70;98.50
19813;DHT22;10066;48.108;11.448;2023-03-23T00:47:07;8.70;98.70
19813;DHT22;10066;48.108;11.448;2023-03-23T00:49:36;8.70;98.80
19813;DHT22;10066;48.108;11.448;2023-03-23T00:52:04;8.70;98.80
19813;DHT22;10066;48.108;11.448;2023-03-23T00:54:32;8.70;99.00
19813;DHT22;10066;48.108;11.448;2023-03-23T00:57:00;8.70;99.00
19813;DHT22;10066;48.108;11.448;2023-03-23T00:59:27;8.70;99.10
19813;DHT22;10066;48.108;11.448;2023-03-23T01:01:54;8.70;99.20
19813;DHT22;10066;48.108;11.448;2023-03-23T01:04:21;8.70;99.30
19813;DHT22;10066;48.108;11.448;2023-03-23T01:06:49;8.70;99.30
19813;DHT22;10066;48.108;11.448;2023-03-23T01:09:18;8.70;99.60
19813;DHT22;10066;48.108;11.448;2023-03-23T01:11:47;8.70;99.50
19813;DHT22;10066;48.108;11.448;2023-03-23T01:14:17;8.80;99.70
19813;DHT22;10066;48.108;11.448;2023-03-23T01:16:45;8.70;99.80
19813;DHT22;10066;48.108;11.448;2023-03-23T01:19:12;8.70;99.80
19813;DHT22;10066;48.108;11.448;2023-03-23T01:21:39;8.70;99.90
19813;DHT22;10066;48.108;11.448;2023-03-23T01:24:07;8.80;99.90
19813;DHT22;10066;48.108;11.448;2023-03-23T01:26:34;8.80;99.90
19813;DHT22;10066;48.108;11.448;2023-03-23T01:29:01;8.80;99.90
19813;DHT22;10066;48.108;11.448;2023-03-23T01:31:29;8.80;99.90
19813;DHT22;10066;48.108;11.448;2023-03-23T01:33:56;8.80;99.90
19813;DHT22;10066;48.108;11.448;2023-03-23T01:36:24;8.70;99.90
19813;DHT22;10066;48.108;11.448;2023-03-23T01:38:52;8.70;99.90
19813;DHT22;10066;48.108;11.448;2023-03-23T01:41:19;8.70;99.90
19813;DHT22;10066;48.108;11.448;2023-03-23T01:43:58;8.70;99.90
19813;DHT22;10066;48.108;11.448;2023-03-23T01:46:27;8.70;99.90
19813;DHT22;10066;48.108;11.448;2023-03-23T01:48:57;8.70;99.90
19813;DHT22;10066;48.108;11.448;2023-03-23T01:51:26;8.80;99.90
19813;DHT22;10066;48.108;11.448;2023-03-23T01:53:57;8.80;99.90
19813;DHT22;10066;48.108;11.448;2023-03-23T01:56:26;8.70;99.90
19813;DHT22;10066;48.108;11.448;2023-03-23T01:58:58;8.70;99.90
19813;DHT22;10066;48.108;11.448;2023-03-23T02:01:25;8.70;99.90
19813;DHT22;10066;48.108;11.448;2023-03-23T02:03:55;8.70;99.90
19813;DHT22;10066;48.108;11.448;2023-03-23T02:06:23;8.70;99.90
19813;DHT22;10066;48.108;11.448;2023-03-23T02:08:51;8.70;99.90
19813;DHT22;10066;48.108;11.448;2023-03-23T02:11:21;8.70;99.90
19813;DHT22;10066;48.108;11.448;2023-03-23T02:13:49;8.70;99.90
19813;DHT22;10066;48.108;11.448;2023-03-23T02:16:24;8.70;99.90
19813;DHT22;10066;48.108;11.448;2023-03-23T02:19:07;8.70;99.90
19813;DHT22;10066;48.108;11.448;2023-03-23T02:22:03;8.70;99.90
19813;DHT22;10066;48.108;11.448;2023-03-23T02:28:04;8.60;99.90
19813;DHT22;10066;48.108;11.448;2023-03-23T02:31:00;8.60;99.90
19813;DHT22;10066;48.108;11.448;2023-03-23T02:33:49;8.60;99.90
19813;DHT22;10066;48.108;11.448;2023-03-23T02:36:22;8.50;99.90
19813;DHT22;10066;48.108;11.448;2023-03-23T02:39:00;8.50;99.90
19813;DHT22;10066;48.108;11.448;2023-03-23T02:41:31;8.50;99.90
19813;DHT22;10066;48.108;11.448;2023-03-23T02:44:02;8.50;99.90
19813;DHT22;10066;48.108;11.448;2023-03-23T02:46:30;8.50;99.90
19813;DHT22;10066;48.108;11.448;2023-03-23T02:49:00;8.50;99.90
19813;DHT22;10066;48.108;11.448;2023-03-23T02:51:28;8.50;99.90
19813;DHT22;10066;48.108;11.448;2023-03-23T02:53:56;8.50;99.90
19813;DHT22;10066;48.108;11.448;2023-03-23T02:56:26;8.50;99.90
19813;DHT22;10066;48.108;11.448;2023-03-23T02:58:54;8.50;99.90
19813;DHT22;10066;48.108;11.448;2023-03-23T03:01:57;8.50;99.90
19813;DHT22;10066;48.108;11.448;2023-03-23T03:04:28;8.40;99.90
19813;DHT22;10066;48.108;11.448;2023-03-23T03:07:21;8.40;99.90
19813;DHT22;10066;48.108;11.448;2023-03-23T03:09:52;8.40;99.90
19813;DHT22;10066;48.108;11.448;2023-03-23T03:12:25;8.40;99.90
19813;DHT22;10066;48.108;11.448;2023-03-23T03:14:58;8.40;99.90
19813;DHT22;10066;48.108;11.448;2023-03-23T03:17:31;8.30;99.90
19813;DHT22;10066;48.108;11.448;2023-03-23T03:20:04;8.30;99.90
19813;DHT22;10066;48.108;11.448;2023-03-23T03:22:35;8.30;99.90
19813;DHT22;10066;48.108;11.448;2023-03-23T03:25:05;8.20;99.90
19813;DHT22;10066;48.108;11.448;2023-03-23T03:27:33;8.20;99.90
19813;DHT22;10066;48.108;11.448;2023-03-23T03:30:04;8.20;99.90
19813;DHT22;10066;48.108;11.448;2023-03-23T03:32:36;8.20;99.90
19813;DHT22;10066;48.108;11.448;2023-03-23T03:35:07;8.20;99.90
19813;DHT22;10066;48.108;11.448;2023-03-23T03:37:34;8.20;99.90
19813;DHT22;10066;48.108;11.448;2023-03-23T03:40:05;8.10;99.90
19813;DHT22;10066;48.108;11.448;2023-03-23T03:42:38;8.10;99.90
19813;DHT22;10066;48.108;11.448;2023-03-23T03:45:06;8.10;99.90
19813;DHT22;10066;48.108;11.448;2023-03-23T03:47:34;8.10;99.90
19813;DHT22;10066;48.108;11.448;2023-03-23T03:50:01;8.10;99.90
19813;DHT22;10066;48.108;11.448;2023-03-23T03:52:29;8.10;99.90
19813;DHT22;10066;48.108;11.448;2023-03-23T03:54:57;8.10;99.90
19813;DHT22;10066;48.108;11.448;2023-03-23T03:57:24;8.10;99.90
19813;DHT22;10066;48.108;11.448;2023-03-23T03:59:51;8.10;99.90
19813;DHT22;10066;48.108;11.448;2023-03-23T04:02:18;8.10;99.90
19813;DHT22;10066;48.108;11.448;2023-03-23T04:04:46;8.10;99.90
19813;DHT22;10066;48.108;11.448;2023-03-23T04:07:14;8.10;99.90
19813;DHT22;10066;48.108;11.448;2023-03-23T04:09:45;8.10;99.90
19813;DHT22;10066;48.108;11.448;2023-03-23T04:12:13;8.10;99.90
19813;DHT22;10066;48.108;11.448;2023-03-23T04:14:40;8.20;99.90
19813;DHT22;10066;48.108;11.448;2023-03-23T04:17:08;8.10;99.90
19813;DHT22;10066;48.108;11.448;2023-03-23T04:19:36;8.20;99.90
19813;DHT22;10066;48.108;11.448;2023-03-23T04:22:04;8.20;99.90
19813;DHT22;10066;48.108;11.448;2023-03-23T04:27:02;8.20;99.90
19813;DHT22;10066;48.108;11.448;2023-03-23T04:29:29;8.20;99.90
19813;DHT22;10066;48.108;11.448;2023-03-23T04:31:56;8.20;99.90
19813;DHT22;10066;48.108;11.448;2023-03-23T04:34:23;8.20;99.90
19813;DHT22;10066;48.108;11.448;2023-03-23T04:36:51;8.30;99.90
19813;DHT22;10066;48.108;11.448;2023-03-23T04:39:18;8.30;99.90
19813;DHT22;10066;48.108;11.448;2023-03-23T04:41:46;8.30;99.90
19813;DHT22;10066;48.108;11.448;2023-03-23T04:44:14;8.30;99.90
19813;DHT22;10066;48.108;11.448;2023-03-23T04:46:43;8.30;99.90
19813;DHT22;10066;48.108;11.448;2023-03-23T04:49:15;8.30;99.90
19813;DHT22;10066;48.108;11.448;2023-03-23T04:51:47;8.30;99.90
19813;DHT22;10066;48.108;11.448;2023-03-23T04:54:16;8.30;99.90
19813;DHT22;10066;48.108;11.448;2023-03-23T04:56:43;8.30;99.90
19813;DHT22;10066;48.108;11.448;2023-03-23T04:59:10;8.40;99.90
19813;DHT22;10066;48.108;11.448;2023-03-23T05:01:40;8.40;99.90
19813;DHT22;10066;48.108;11.448;2023-03-23T05:04:10;8.40;99.90
19813;DHT22;10066;48.108;11.448;2023-03-23T05:06:38;8.40;99.90
19813;DHT22;10066;48.108;11.448;2023-03-23T05:09:06;8.50;99.90
19813;DHT22;10066;48.108;11.448;2023-03-23T05:11:33;8.50;99.90
19813;DHT22;10066;48.108;11.448;2023-03-23T05:14:00;8.60;99.90
19813;DHT22;10066;48.108;11.448;2023-03-23T05:16:27;8.60;99.90
19813;DHT22;10066;48.108;11.448;2023-03-23T05:18:55;8.60;99.90
19813;DHT22;10066;48.108;11.448;2023-03-23T05:21:23;8.60;99.90
19813;DHT22;10066;48.108;11.448;2023-03-23T05:23:51;8.70;99.90
19813;DHT22;10066;48.108;11.448;2023-03-23T05:26:20;8.60;99.90
19813;DHT22;10066;48.108;11.448;2023-03-23T05:28:47;8.70;99.90
19813;DHT22;10066;48.108;11.448;2023-03-23T05:31:17;8.70;99.90
19813;DHT22;10066;48.108;11.448;2023-03-23T05:33:44;8.80;99.90
19813;DHT22;10066;48.108;11.448;2023-03-23T05:36:13;8.80;99.90
19813;DHT22;10066;48.108;11.448;2023-03-23T05:38:40;8.80;99.90
19813;DHT22;10066;48.108;11.448;2023-03-23T05:41:10;8.90;99.90
19813;DHT22;10066;48.108;11.448;2023-03-23T05:43:37;8.90;99.90
19813;DHT22;10066;48.108;11.448;2023-03-23T05:46:06;8.90;99.90
19813;DHT22;10066;48.108;11.448;2023-03-23T05:48:33;9.00;99.90
19813;DHT22;10066;48.108;11.448;2023-03-23T05:51:01;9.00;99.90
19813;DHT22;10066;48.108;11.448;2023-03-23T05:53:30;9.10;99.90
19813;DHT22;10066;48.108;11.448;2023-03-23T05:55:59;9.10;99.90
19813;DHT22;10066;48.108;11.448;2023-03-23T05:58:26;9.20;99.90
19813;DHT22;10066;48.108;11.448;2023-03-23T06:00:54;9.20;99.90
19813;DHT22;10066;48.108;11.448;2023-03-23T06:03:20;9.20;99.90
19813;DHT22;10066;48.108;11.448;2023-03-23T06:05:48;9.20;99.90
19813;DHT22;10066;48.108;11.448;2023-03-23T06:08:16;9.20;99.90
19813;DHT22;10066;48.108;11.448;2023-03-23T06:10:44;9.30;99.90
19813;DHT22;10066;48.108;11.448;2023-03-23T06:13:11;9.30;99.90
19813;DHT22;10066;48.108;11.448;2023-03-23T06:15:38;9.30;99.90
19813;DHT22;10066;48.108;11.448;2023-03-23T06:18:05;9.40;99.90
19813;DHT22;10066;48.108;11.448;2023-03-23T06:20:32;9.50;99.90
19813;DHT22;10066;48.108;11.448;2023-03-23T06:23:00;9.50;99.90
19813;DHT22;10066;48.108;11.448;2023-03-23T06:25:28;9.60;99.90
19813;DHT22;10066;48.108;11.448;2023-03-23T06:27:57;9.70;99.90
19813;DHT22;10066;48.108;11.448;2023-03-23T06:30:24;9.80;99.90
19813;DHT22;10066;48.108;11.448;2023-03-23T06:32:52;9.90;99.90
19813;DHT22;10066;48.108;11.448;2023-03-23T06:35:19;10.00;99.90
19813;DHT22;10066;48.108;11.448;2023-03-23T06:37:47;10.10;99.90
19813;DHT22;10066;48.108;11.448;2023-03-23T06:40:13;10.20;99.90
19813;DHT22;10066;48.108;11.448;2023-03-23T06:42:44;10.30;99.90
19813;DHT22;10066;48.108;11.448;2023-03-23T06:45:12;10.30;99.90
19813;DHT22;10066;48.108;11.448;2023-03-23T06:47:39;10.40;99.90
19813;DHT22;10066;48.108;11.448;2023-03-23T06:50:07;10.40;99.90
19813;DHT22;10066;48.108;11.448;2023-03-23T06:52:35;10.50;99.90
19813;DHT22;10066;48.108;11.448;2023-03-23T06:55:02;10.50;99.90
19813;DHT22;10066;48.108;11.448;2023-03-23T06:57:29;10.60;99.90
19813;DHT22;10066;48.108;11.448;2023-03-23T06:59:56;10.60;99.90
19813;DHT22;10066;48.108;11.448;2023-03-23T07:02:24;10.70;99.90
19813;DHT22;10066;48.108;11.448;2023-03-23T07:04:51;10.70;99.90
19813;DHT22;10066;48.108;11.448;2023-03-23T07:07:19;10.80;99.90
19813;DHT22;10066;48.108;11.448;2023-03-23T07:09:46;10.90;99.90
19813;DHT22;10066;48.108;11.448;2023-03-23T07:12:13;10.90;99.90
19813;DHT22;10066;48.108;11.448;2023-03-23T07:14:41;11.00;99.90
19813;DHT22;10066;48.108;11.448;2023-03-23T07:17:08;11.20;99.90
19813;DHT22;10066;48.108;11.448;2023-03-23T07:19:36;11.30;99.90
19813;DHT22;10066;48.108;11.448;2023-03-23T07:22:05;11.40;99.90
19813;DHT22;10066;48.108;11.448;2023-03-23T07:24:33;11.60;99.90
19813;DHT22;10066;48.108;11.448;2023-03-23T07:27:00;11.80;99.90
19813;DHT22;10066;48.108;11.448;2023-03-23T07:29:28;11.90;99.90
19813;DHT22;10066;48.108;11.448;2023-03-23T07:31:55;12.00;99.90
19813;DHT22;10066;48.108;11.448;2023-03-23T07:34:22;12.20;99.90
19813;DHT22;10066;48.108;11.448;2023-03-23T07:36:51;12.30;99.90
19813;DHT22;10066;48.108;11.448;2023-03-23T07:39:18;12.40;99.90
19813;DHT22;10066;48.108;11.448;2023-03-23T07:41:44;12.50;99.90
19813;DHT22;10066;48.108;11.448;2023-03-23T07:44:11;12.70;99.90
19813;DHT22;10066;48.108;11.448;2023-03-23T07:46:38;12.90;99.90
19813;DHT22;10066;48.108;11.448;2023-03-23T07:49:05;13.00;99.90
19813;DHT22;10066;48.108;11.448;2023-03-23T07:51:33;13.20;99.90
19813;DHT22;10066;48.108;11.448;2023-03-23T07:54:02;13.40;99.90
19813;DHT22;10066;48.108;11.448;2023-03-23T07:56:30;13.60;99.90
19813;DHT22;10066;48.108;11.448;2023-03-23T07:58:57;13.80;99.90
19813;DHT22;10066;48.108;11.448;2023-03-23T08:01:24;14.00;99.90
19813;DHT22;10066;48.108;11.448;2023-03-23T08:03:51;14.20;99.90
19813;DHT22;10066;48.108;11.448;2023-03-23T08:06:19;14.40;99.90
19813;DHT22;10066;48.108;11.448;2023-03-23T08:08:47;14.60;99.90
19813;DHT22;10066;48.108;11.448;2023-03-23T08:11:15;14.70;99.90
19813;DHT22;10066;48.108;11.448;2023-03-23T08:13:42;14.80;99.90
19813;DHT22;10066;48.108;11.448;2023-03-23T08:16:09;14.90;99.90
19813;DHT22;10066;48.108;11.448;2023-03-23T08:18:36;14.90;99.90
19813;DHT22;10066;48.108;11.448;2023-03-23T08:21:05;15.00;99.90
19813;DHT22;10066;48.108;11.448;2023-03-23T08:23:34;15.10;99.90
19813;DHT22;10066;48.108;11.448;2023-03-23T08:26:02;15.10;99.90
19813;DHT22;10066;48.108;11.448;2023-03-23T08:28:33;15.20;99.90
19813;DHT22;10066;48.108;11.448;2023-03-23T08:31:00;15.30;99.90
19813;DHT22;10066;48.108;11.448;2023-03-23T08:33:27;15.30;99.90
19813;DHT22;10066;48.108;11.448;2023-03-23T08:35:55;15.40;99.90
19813;DHT22;10066;48.108;11.448;2023-03-23T08:38:23;15.40;99.90
19813;DHT22;10066;48.108;11.448;2023-03-23T08:40:50;15.40;99.90
19813;DHT22;10066;48.108;11.448;2023-03-23T08:43:18;15.40;99.60
19813;DHT22;10066;48.108;11.448;2023-03-23T08:45:46;15.40;99.50
19813;DHT22;10066;48.108;11.448;2023-03-23T08:48:13;15.50;99.50
19813;DHT22;10066;48.108;11.448;2023-03-23T08:50:40;15.60;99.70
19813;DHT22;10066;48.108;11.448;2023-03-23T08:53:07;15.70;99.60
19813;DHT22;10066;48.108;11.448;2023-03-23T08:55:35;15.70;99.20
19813;DHT22;10066;48.108;11.448;2023-03-23T08:58:02;15.80;99.10
19813;DHT22;10066;48.108;11.448;2023-03-23T09:00:29;15.90;98.80
19813;DHT22;10066;48.108;11.448;2023-03-23T09:02:58;16.00;98.50
19813;DHT22;10066;48.108;11.448;2023-03-23T09:05:27;16.20;98.10
19813;DHT22;10066;48.108;11.448;2023-03-23T09:07:55;16.30;98.00
19813;DHT22;10066;48.108;11.448;2023-03-23T09:10:25;16.40;97.60
19813;DHT22;10066;48.108;11.448;2023-03-23T09:12:53;16.50;97.30
19813;DHT22;10066;48.108;11.448;2023-03-23T09:15:21;16.50;96.30
19813;DHT22;10066;48.108;11.448;2023-03-23T09:17:51;16.50;95.70
19813;DHT22;10066;48.108;11.448;2023-03-23T09:20:22;16.60;96.10
19813;DHT22;10066;48.108;11.448;2023-03-23T09:22:52;16.70;96.60
19813;DHT22;10066;48.108;11.448;2023-03-23T09:25:21;16.80;96.40
19813;DHT22;10066;48.108;11.448;2023-03-23T09:27:49;17.00;96.30
19813;DHT22;10066;48.108;11.448;2023-03-23T09:30:22;17.00;96.10
19813;DHT22;10066;48.108;11.448;2023-03-23T09:32:49;17.20;96.00
19813;DHT22;10066;48.108;11.448;2023-03-23T09:35:16;17.30;95.60
19813;DHT22;10066;48.108;11.448;2023-03-23T09:37:49;17.50;95.80
19813;DHT22;10066;48.108;11.448;2023-03-23T09:40:20;17.60;95.20
19813;DHT22;10066;48.108;11.448;2023-03-23T09:43:06;17.70;94.90
19813;DHT22;10066;48.108;11.448;2023-03-23T09:45:41;17.90;93.70
19813;DHT22;10066;48.108;11.448;2023-03-23T09:48:25;18.00;93.70
19813;DHT22;10066;48.108;11.448;2023-03-23T09:50:59;18.10;92.60
19813;DHT22;10066;48.108;11.448;2023-03-23T09:53:34;18.20;92.20
19813;DHT22;10066;48.108;11.448;2023-03-23T09:56:08;18.30;91.80
19813;DHT22;10066;48.108;11.448;2023-03-23T09:58:42;18.30;91.30
19813;DHT22;10066;48.108;11.448;2023-03-23T10:01:16;18.40;91.20
19813;DHT22;10066;48.108;11.448;2023-03-23T10:03:45;18.50;90.80
19813;DHT22;10066;48.108;11.448;2023-03-23T10:06:14;18.70;90.80
19813;DHT22;10066;48.108;11.448;2023-03-23T10:08:46;18.80;90.20
19813;DHT22;10066;48.108;11.448;2023-03-23T10:11:19;18.90;89.90
19813;DHT22;10066;48.108;11.448;2023-03-23T10:14:07;19.10;88.80
19813;DHT22;10066;48.108;11.448;2023-03-23T10:16:38;19.20;88.20
19813;DHT22;10066;48.108;11.448;2023-03-23T10:19:11;19.30;87.70
19813;DHT22;10066;48.108;11.448;2023-03-23T10:21:41;19.40;84.20
19813;DHT22;10066;48.108;11.448;2023-03-23T10:26:50;19.40;80.60
19813;DHT22;10066;48.108;11.448;2023-03-23T10:29:27;19.40;81.30
19813;DHT22;10066;48.108;11.448;2023-03-23T10:31:58;19.40;79.80
19813;DHT22;10066;48.108;11.448;2023-03-23T10:34:31;19.30;79.80
19813;DHT22;10066;48.108;11.448;2023-03-23T10:37:03;19.20;79.90
19813;DHT22;10066;48.108;11.448;2023-03-23T10:39:41;19.20;79.10
19813;DHT22;10066;48.108;11.448;2023-03-23T10:42:10;19.10;78.60
19813;DHT22;10066;48.108;11.448;2023-03-23T10:44:37;18.90;78.60
19813;DHT22;10066;48.108;11.448;2023-03-23T10:47:05;18.90;78.80
19813;DHT22;10066;48.108;11.448;2023-03-23T10:49:37;18.80;78.70
19813;DHT22;10066;48.108;11.448;2023-03-23T10:52:13;18.80;79.40
19813;DHT22;10066;48.108;11.448;2023-03-23T10:54:50;18.70;79.30
19813;DHT22;10066;48.108;11.448;2023-03-23T10:57:22;18.70;79.30
19813;DHT22;10066;48.108;11.448;2023-03-23T10:59:50;18.80;79.30
19813;DHT22;10066;48.108;11.448;2023-03-23T11:02:18;18.80;79.50
19813;DHT22;10066;48.108;11.448;2023-03-23T11:04:53;18.80;78.20
19813;DHT22;10066;48.108;11.448;2023-03-23T11:07:27;18.80;79.30
19813;DHT22;10066;48.108;11.448;2023-03-23T11:09:59;18.90;78.80
19813;DHT22;10066;48.108;11.448;2023-03-23T11:12:33;18.90;78.10
19813;DHT22;10066;48.108;11.448;2023-03-23T11:15:11;18.90;77.30
19813;DHT22;10066;48.108;11.448;2023-03-23T11:17:42;18.90;78.30
19813;DHT22;10066;48.108;11.448;2023-03-23T11:20:13;19.00;78.10
19813;DHT22;10066;48.108;11.448;2023-03-23T11:22:42;19.00;77.60
19813;DHT22;10066;48.108;11.448;2023-03-23T11:25:13;19.10;77.70
19813;DHT22;10066;48.108;11.448;2023-03-23T11:27:40;19.10;76.60
19813;DHT22;10066;48.108;11.448;2023-03-23T11:30:10;19.20;77.40
19813;DHT22;10066;48.108;11.448;2023-03-23T11:32:43;19.30;77.80
19813;DHT22;10066;48.108;11.448;2023-03-23T11:35:17;19.40;75.50
19813;DHT22;10066;48.108;11.448;2023-03-23T11:37:48;19.40;75.00
19813;DHT22;10066;48.108;11.448;2023-03-23T11:40:19;19.60;76.20
19813;DHT22;10066;48.108;11.448;2023-03-23T11:42:48;19.70;76.80
19813;DHT22;10066;48.108;11.448;2023-03-23T11:45:21;19.80;75.30
19813;DHT22;10066;48.108;11.448;2023-03-23T11:47:56;19.80;74.30
19813;DHT22;10066;48.108;11.448;2023-03-23T11:50:29;20.00;74.60
19813;DHT22;10066;48.108;11.448;2023-03-23T11:53:01;20.00;73.10
19813;DHT22;10066;48.108;11.448;2023-03-23T11:55:49;20.00;71.60
19813;DHT22;10066;48.108;11.448;2023-03-23T11:58:19;20.10;71.90
19813;DHT22;10066;48.108;11.448;2023-03-23T12:00:51;20.10;72.30
19813;DHT22;10066;48.108;11.448;2023-03-23T12:03:21;20.20;71.80
19813;DHT22;10066;48.108;11.448;2023-03-23T12:05:56;20.20;71.20
19813;DHT22;10066;48.108;11.448;2023-03-23T12:08:42;20.30;70.90
19813;DHT22;10066;48.108;11.448;2023-03-23T12:11:19;20.30;69.90
19813;DHT22;10066;48.108;11.448;2023-03-23T12:13:59;20.30;70.00
19813;DHT22;10066;48.108;11.448;2023-03-23T12:16:39;20.30;69.80
19813;DHT22;10066;48.108;11.448;2023-03-23T12:19:15;20.30;69.10
19813;DHT22;10066;48.108;11.448;2023-03-23T12:21:55;20.30;69.60
19813;DHT22;10066;48.108;11.448;2023-03-23T12:24:41;20.30;69.40
19813;DHT22;10066;48.108;11.448;2023-03-23T12:27:19;20.30;68.70
19813;DHT22;10066;48.108;11.448;2023-03-23T12:29:58;20.30;69.20
19813;DHT22;10066;48.108;11.448;2023-03-23T12:32:42;20.40;68.80
19813;DHT22;10066;48.108;11.448;2023-03-23T12:35:34;20.40;67.50
19813;DHT22;10066;48.108;11.448;2023-03-23T12:41:03;20.30;68.00
19813;DHT22;10066;48.108;11.448;2023-03-23T12:43:38;20.30;67.30
19813;DHT22;10066;48.108;11.448;2023-03-23T12:46:18;20.30;67.40
19813;DHT22;10066;48.108;11.448;2023-03-23T12:48:51;20.30;67.00
19813;DHT22;10066;48.108;11.448;2023-03-23T12:51:21;20.20;66.10
19813;DHT22;10066;48.108;11.448;2023-03-23T12:53:55;20.10;65.20
19813;DHT22;10066;48.108;11.448;2023-03-23T12:56:28;20.10;65.50
19813;DHT22;10066;48.108;11.448;2023-03-23T12:59:02;20.00;65.40
19813;DHT22;10066;48.108;11.448;2023-03-23T13:01:33;20.10;65.90
19813;DHT22;10066;48.108;11.448;2023-03-23T13:04:04;20.10;65.60
19813;DHT22;10066;48.108;11.448;2023-03-23T13:06:36;20.00;64.00
19813;DHT22;10066;48.108;11.448;2023-03-23T13:09:09;19.90;63.70
19813;DHT22;10066;48.108;11.448;2023-03-23T13:11:39;19.90;64.40
19813;DHT22;10066;48.108;11.448;2023-03-23T13:14:21;19.90;64.40
19813;DHT22;10066;48.108;11.448;2023-03-23T13:16:58;19.90;63.90
19813;DHT22;10066;48.108;11.448;2023-03-23T13:19:32;19.90;63.70
19813;DHT22;10066;48.108;11.448;2023-03-23T13:22:06;19.80;63.70
19813;DHT22;10066;48.108;11.448;2023-03-23T13:24:36;19.80;63.60
19813;DHT22;10066;48.108;11.448;2023-03-23T13:27:06;19.80;63.40
19813;DHT22;10066;48.108;11.448;2023-03-23T13:29:44;19.80;63.30
19813;DHT22;10066;48.108;11.448;2023-03-23T13:32:12;19.70;62.90
19813;DHT22;10066;48.108;11.448;2023-03-23T13:34:42;19.70;62.80
19813;DHT22;10066;48.108;11.448;2023-03-23T13:37:11;19.60;62.90
19813;DHT22;10066;48.108;11.448;2023-03-23T13:39:49;19.50;62.60
19813;DHT22;10066;48.108;11.448;2023-03-23T13:42:20;19.50;62.90
19813;DHT22;10066;48.108;11.448;2023-03-23T13:45:08;19.50;62.60
19813;DHT22;10066;48.108;11.448;2023-03-23T13:47:45;19.50;63.10
19813;DHT22;10066;48.108;11.448;2023-03-23T13:50:25;19.50;63.00
19813;DHT22;10066;48.108;11.448;2023-03-23T13:52:54;19.50;63.00
19813;DHT22;10066;48.108;11.448;2023-03-23T13:55:39;19.40;63.30
19813;DHT22;10066;48.108;11.448;2023-03-23T13:58:12;19.40;64.10
19813;DHT22;10066;48.108;11.448;2023-03-23T14:01:09;19.30;64.50
19813;DHT22;10066;48.108;11.448;2023-03-23T14:03:40;19.20;63.50
19813;DHT22;10066;48.108;11.448;2023-03-23T14:06:13;19.10;64.10
19813;DHT22;10066;48.108;11.448;2023-03-23T14:08:43;19.10;65.10
19813;DHT22;10066;48.108;11.448;2023-03-23T14:11:16;19.10;65.90
19813;DHT22;10066;48.108;11.448;2023-03-23T14:13:49;19.20;66.80
19813;DHT22;10066;48.108;11.448;2023-03-23T14:16:20;19.10;66.90
19813;DHT22;10066;48.108;11.448;2023-03-23T14:18:55;19.10;67.50
19813;DHT22;10066;48.108;11.448;2023-03-23T14:21:36;18.80;67.90
19813;DHT22;10066;48.108;11.448;2023-03-23T14:24:05;18.90;68.30
19813;DHT22;10066;48.108;11.448;2023-03-23T14:26:34;18.70;69.20
19813;DHT22;10066;48.108;11.448;2023-03-23T14:29:03;18.50;69.60
19813;DHT22;10066;48.108;11.448;2023-03-23T14:31:32;18.40;69.30
19813;DHT22;10066;48.108;11.448;2023-03-23T14:34:03;18.50;70.50
19813;DHT22;10066;48.108;11.448;2023-03-23T14:36:32;18.40;69.80
19813;DHT22;10066;48.108;11.448;2023-03-23T14:39:03;18.50;69.40
19813;DHT22;10066;48.108;11.448;2023-03-23T14:41:32;18.50;69.20
19813;DHT22;10066;48.108;11.448;2023-03-23T14:44:02;18.50;68.70
19813;DHT22;10066;48.108;11.448;2023-03-23T14:46:31;18.50;68.70
19813;DHT22;10066;48.108;11.448;2023-03-23T14:49:01;18.50;68.60
19813;DHT22;10066;48.108;11.448;2023-03-23T14:51:28;18.50;68.70
19813;DHT22;10066;48.108;11.448;2023-03-23T14:53:57;18.40;68.90
19813;DHT22;10066;48.108;11.448;2023-03-23T14:56:33;18.30;68.20
19813;DHT22;10066;48.108;11.448;2023-03-23T14:59:04;18.30;68.60
19813;DHT22;10066;48.108;11.448;2023-03-23T15:01:34;18.30;69.10
19813;DHT22;10066;48.108;11.448;2023-03-23T15:04:05;18.20;69.10
19813;DHT22;10066;48.108;11.448;2023-03-23T15:06:34;18.20;69.30
19813;DHT22;10066;48.108;11.448;2023-03-23T15:09:05;18.10;69.50
19813;DHT22;10066;48.108;11.448;2023-03-23T15:11:35;18.10;69.80
19813;DHT22;10066;48.108;11.448;2023-03-23T15:14:10;18.00;70.00
19813;DHT22;10066;48.108;11.448;2023-03-23T15:16:46;18.00;70.20
19813;DHT22;10066;48.108;11.448;2023-03-23T15:19:17;17.90;70.30
19813;DHT22;10066;48.108;11.448;2023-03-23T15:21:50;17.90;70.50
19813;DHT22;10066;48.108;11.448;2023-03-23T15:24:23;17.80;70.60
19813;DHT22;10066;48.108;11.448;2023-03-23T15:26:52;17.80;70.90
19813;DHT22;10066;48.108;11.448;2023-03-23T15:29:20;17.80;71.10
19813;DHT22;10066;48.108;11.448;2023-03-23T15:31:53;17.80;71.10
19813;DHT22;10066;48.108;11.448;2023-03-23T15:34:29;17.80;71.30
19813;DHT22;10066;48.108;11.448;2023-03-23T15:36:59;17.80;71.50
19813;DHT22;10066;48.108;11.448;2023-03-23T15:39:27;17.80;72.40
19813;DHT22;10066;48.108;11.448;2023-03-23T15:41:55;17.90;72.00
19813;DHT22;10066;48.108;11.448;2023-03-23T15:44:26;17.80;72.30
19813;DHT22;10066;48.108;11.448;2023-03-23T15:47:03;17.70;72.20
19813;DHT22;10066;48.108;11.448;2023-03-23T15:49:31;17.60;72.30
19813;DHT22;10066;48.108;11.448;2023-03-23T15:51:58;17.60;72.40
19813;DHT22;10066;48.108;11.448;2023-03-23T15:54:30;17.60;72.90
19813;DHT22;10066;48.108;11.448;2023-03-23T15:56:57;17.50;73.70